createdAt,value
2019-05-19T00:01:04.738Z,99053.20
2019-05-19T00:06:08.217Z,99052.41
2019-05-19T00:11:11.435Z,99051.84
2019-05-19T00:16:14.666Z,99059.22
2019-05-19T00:21:17.860Z,99060.02
2019-05-19T00:26:21.068Z,99056.50
2019-05-19T00:31:24.304Z,99048.56
2019-05-19T00:36:27.499Z,99047.20
2019-05-19T00:41:30.716Z,99044.77
2019-05-19T00:46:33.927Z,99039.86
2019-05-19T00:51:37.140Z,99037.66
2019-05-19T00:56:40.350Z,99044.47
2019-05-19T01:01:43.569Z,99044.21
2019-05-19T01:06:46.782Z,99041.75
2019-05-19T01:11:49.996Z,99036.04
2019-05-19T01:16:53.206Z,99038.77
2019-05-19T01:21:56.413Z,99035.22
2019-05-19T01:26:59.633Z,99037.11
2019-05-19T01:32:02.838Z,99041.48
2019-05-19T01:37:06.050Z,99040.66
2019-05-19T01:42:09.266Z,99038.47
2019-05-19T01:47:12.482Z,99039.53
2019-05-19T01:52:15.693Z,99032.73
2019-05-19T01:57:18.911Z,99030.00
2019-05-19T02:02:22.111Z,99021.83
2019-05-19T02:07:25.369Z,99019.94
2019-05-19T02:12:28.578Z,99012.83
2019-05-19T02:17:31.790Z,99010.11
2019-05-19T02:22:35.026Z,99000.31
2019-05-19T02:27:38.241Z,99003.86
2019-05-19T02:32:41.461Z,99003.86
2019-05-19T02:37:44.667Z,99006.59
2019-05-19T02:42:47.865Z,99004.10
2019-05-19T02:47:51.095Z,99005.47
2019-05-19T02:52:54.310Z,99000.02
2019-05-19T02:57:57.526Z,99003.28
2019-05-19T03:03:00.765Z,99002.45
2019-05-19T03:08:03.984Z,98996.20
2019-05-19T03:13:07.180Z,99001.91
2019-05-19T03:18:10.406Z,98995.64
2019-05-19T03:23:13.607Z,99001.38
2019-05-19T03:28:16.827Z,99008.46
2019-05-19T03:33:24.421Z,99016.06
2019-05-19T03:38:27.596Z,99024.23
2019-05-19T03:43:30.813Z,99011.19
2019-05-19T03:48:34.045Z,99013.91
2019-05-19T03:53:37.255Z,99017.16
2019-05-19T03:58:40.474Z,99019.89
2019-05-19T04:03:43.696Z,99015.27
2019-05-19T04:08:46.901Z,99016.63
2019-05-19T04:13:50.110Z,99022.08
2019-05-19T04:18:53.339Z,99026.16
2019-05-19T04:23:56.559Z,99025.87
2019-05-19T04:28:59.763Z,99028.59
2019-05-19T04:34:02.990Z,99030.78
2019-05-19T04:39:06.738Z,99025.34
2019-05-19T04:44:09.965Z,99032.41
2019-05-19T04:49:13.179Z,99028.89
2019-05-19T04:54:16.400Z,99032.68
2019-05-19T04:59:19.611Z,99026.70
2019-05-19T05:04:28.799Z,99023.14
2019-05-19T05:09:27.771Z,99023.14
2019-05-19T05:14:30.983Z,99013.91
2019-05-19T05:19:34.210Z,99020.42
2019-05-19T05:24:37.434Z,99020.72
2019-05-19T05:29:40.705Z,99028.06
2019-05-19T05:34:43.929Z,99024.80
2019-05-19T05:39:47.140Z,99022.08
2019-05-19T05:44:50.354Z,99020.72
2019-05-19T05:49:53.586Z,99017.42
2019-05-19T05:54:56.798Z,99014.70
2019-05-19T06:00:00.016Z,99004.38
2019-05-19T06:05:03.419Z,99008.46
2019-05-19T06:10:07.806Z,99014.70
2019-05-19T06:15:11.023Z,99020.72
2019-05-19T06:20:14.246Z,99021.52
2019-05-19T06:25:17.470Z,99016.89
2019-05-19T06:30:20.686Z,99017.16
2019-05-19T06:35:23.922Z,99016.89
2019-05-19T06:40:27.128Z,99019.09
2019-05-19T06:45:30.478Z,99013.64
2019-05-19T06:50:33.760Z,99016.89
2019-05-19T06:55:36.965Z,98999.19
2019-05-19T07:00:40.246Z,98995.94
2019-05-19T07:05:43.492Z,98995.94
2019-05-19T07:10:46.689Z,99000.84
2019-05-19T07:15:49.906Z,98995.40
2019-05-19T07:20:53.138Z,98997.05
2019-05-19T07:25:56.345Z,98984.80
2019-05-19T07:30:59.576Z,98985.59
2019-05-19T07:36:02.793Z,98979.08
2019-05-19T07:41:06.006Z,98976.66
2019-05-19T07:46:09.219Z,98972.80
2019-05-19T07:51:12.468Z,98975.29
2019-05-19T07:56:15.674Z,98975.02
2019-05-19T08:01:18.892Z,98966.31
2019-05-19T08:06:22.118Z,98963.59
2019-05-19T08:11:25.344Z,98963.05
2019-05-19T08:16:28.568Z,98958.14
2019-05-19T08:21:31.781Z,98955.14
2019-05-19T08:26:35.008Z,98952.16
2019-05-19T08:31:38.227Z,98946.71
2019-05-19T08:36:41.522Z,98944.25
2019-05-19T08:41:44.726Z,98931.99
2019-05-19T08:46:47.942Z,98935.55
2019-05-19T08:51:51.199Z,98928.20
2019-05-19T08:56:54.397Z,98932.28
2019-05-19T09:01:58.364Z,98934.18
2019-05-19T09:07:01.598Z,98930.09
2019-05-19T09:12:04.810Z,98930.09
2019-05-19T09:17:08.018Z,98923.82
2019-05-19T09:22:11.285Z,98930.92
2019-05-19T09:27:14.489Z,98930.39
2019-05-19T09:32:17.683Z,98919.73
2019-05-19T09:37:20.925Z,98913.75
2019-05-19T09:42:24.145Z,98912.68
2019-05-19T09:47:27.350Z,98914.58
2019-05-19T09:52:30.580Z,98908.06
2019-05-19T09:57:33.792Z,98901.25
2019-05-19T10:02:37.013Z,98903.98
2019-05-19T10:07:40.237Z,98891.72
2019-05-19T10:12:43.449Z,98896.06
2019-05-19T10:17:46.667Z,98894.70
2019-05-19T10:22:49.905Z,98892.80
2019-05-19T10:27:53.118Z,98891.98
2019-05-19T10:32:58.729Z,98891.44
2019-05-19T10:38:01.280Z,98886.53
2019-05-19T10:43:04.509Z,98895.00
2019-05-19T10:48:07.726Z,98885.46
2019-05-19T10:53:10.948Z,98884.65
2019-05-19T10:58:14.160Z,98879.48
2019-05-19T11:03:17.377Z,98877.84
2019-05-19T11:08:20.620Z,98878.14
2019-05-19T11:13:23.839Z,98878.67
2019-05-19T11:18:27.091Z,98871.86
2019-05-19T11:23:30.319Z,98865.05
2019-05-19T11:28:33.568Z,98868.60
2019-05-19T11:33:36.735Z,98867.53
2019-05-19T11:38:39.960Z,98864.27
2019-05-19T11:43:43.175Z,98860.72
2019-05-19T11:48:46.387Z,98858.53
2019-05-19T11:53:49.619Z,98861.80
2019-05-19T11:58:52.833Z,98862.91
2019-05-19T12:03:56.055Z,98855.53
2019-05-19T12:08:59.285Z,98845.46
2019-05-19T12:14:02.511Z,98852.03
2019-05-19T12:19:05.724Z,98842.20
2019-05-19T12:24:08.950Z,98844.39
2019-05-19T12:29:12.156Z,98841.92
2019-05-19T12:34:15.362Z,98845.48
2019-05-19T12:39:18.598Z,98842.51
2019-05-19T12:44:21.798Z,98842.75
2019-05-19T12:49:25.025Z,98840.85
2019-05-19T12:54:28.348Z,98830.78
2019-05-19T12:59:31.543Z,98828.59
2019-05-19T13:04:34.750Z,98823.69
2019-05-19T13:09:37.974Z,98824.80
2019-05-19T13:14:41.176Z,98828.06
2019-05-19T13:19:44.424Z,98811.17
2019-05-19T13:24:47.631Z,98810.34
2019-05-19T13:29:50.841Z,98808.71
2019-05-19T13:34:54.059Z,98810.90
2019-05-19T13:39:57.259Z,98804.09
2019-05-19T13:45:01.057Z,98809.54
2019-05-19T13:50:08.865Z,98812.55
2019-05-19T13:55:12.253Z,98804.37
2019-05-19T14:00:15.471Z,98805.74
2019-05-19T14:05:18.684Z,98796.50
2019-05-19T14:10:21.893Z,98789.93
2019-05-19T14:15:25.097Z,98787.50
2019-05-19T14:20:28.322Z,98772.23
2019-05-19T14:25:31.542Z,98770.61
2019-05-19T14:30:34.769Z,98755.34
2019-05-19T14:35:37.986Z,98765.16
2019-05-19T14:40:41.383Z,98758.61
2019-05-19T14:45:44.581Z,98760.51
2019-05-19T14:50:47.827Z,98759.72
2019-05-19T14:55:51.038Z,98764.59
2019-05-19T15:00:54.257Z,98758.35
2019-05-19T15:05:57.479Z,98752.09
2019-05-19T15:11:00.693Z,98746.11
2019-05-19T15:16:03.909Z,98747.47
2019-05-19T15:21:07.118Z,98741.73
2019-05-19T15:26:10.336Z,98732.20
2019-05-19T15:31:13.549Z,98731.95
2019-05-19T15:36:16.752Z,98725.14
2019-05-19T15:41:19.995Z,98725.94
2019-05-19T15:46:23.199Z,98724.86
2019-05-19T15:51:29.107Z,98724.31
2019-05-19T15:56:31.387Z,98716.40
2019-05-19T16:01:34.597Z,98713.97
2019-05-19T16:06:39.169Z,98717.77
2019-05-19T16:11:42.599Z,98717.23
2019-05-19T16:16:45.824Z,98718.59
2019-05-19T16:21:49.045Z,98706.86
2019-05-19T16:26:52.258Z,98711.52
2019-05-19T16:31:55.471Z,98713.14
2019-05-19T16:36:58.687Z,98716.97
2019-05-19T16:42:01.898Z,98711.77
2019-05-19T16:47:05.119Z,98709.59
2019-05-19T16:52:09.212Z,98716.15
2019-05-19T16:57:12.421Z,98717.23
2019-05-19T17:02:15.634Z,98713.97
2019-05-19T17:07:18.862Z,98715.33
2019-05-19T17:12:22.078Z,98710.95
2019-05-19T17:17:25.296Z,98710.95
2019-05-19T17:22:28.515Z,98699.26
2019-05-19T17:27:31.731Z,98705.50
2019-05-19T17:32:34.946Z,98701.69
2019-05-19T17:37:38.164Z,98696.78
2019-05-19T17:42:41.375Z,98700.63
2019-05-19T17:47:44.585Z,98699.52
2019-05-19T17:52:47.798Z,98698.43
2019-05-19T17:57:51.009Z,98699.26
2019-05-19T18:02:54.222Z,98708.80
2019-05-19T18:07:57.434Z,98712.05
2019-05-19T18:13:00.646Z,98706.86
2019-05-19T18:18:03.880Z,98715.86
2019-05-19T18:23:07.161Z,98706.86
2019-05-19T18:28:10.370Z,98718.05
2019-05-19T18:33:13.585Z,98715.86
2019-05-19T18:38:16.803Z,98724.86
2019-05-19T18:43:20.017Z,98724.58
2019-05-19T18:48:23.542Z,98725.40
2019-05-19T18:53:26.958Z,98727.59
2019-05-19T18:58:30.150Z,98731.38
2019-05-19T19:03:33.365Z,98733.04
2019-05-19T19:08:37.901Z,98736.59
2019-05-19T19:13:41.379Z,98738.20
2019-05-19T19:18:44.579Z,98740.39
2019-05-19T19:23:47.839Z,98746.38
2019-05-19T19:28:51.050Z,98747.20
2019-05-19T19:33:54.266Z,98744.47
2019-05-19T19:38:57.477Z,98751.03
2019-05-19T19:44:00.684Z,98744.75
2019-05-19T19:49:03.896Z,98734.68
2019-05-19T19:54:07.101Z,98736.58
2019-05-19T19:59:10.311Z,98731.66
2019-05-19T20:04:13.521Z,98734.92
2019-05-19T20:09:16.729Z,98742.03
2019-05-19T20:14:19.941Z,98735.22
2019-05-19T20:19:23.199Z,98738.20
2019-05-19T20:24:26.376Z,98734.11
2019-05-19T20:29:29.587Z,98736.58
2019-05-19T20:34:32.793Z,98736.58
2019-05-19T20:39:36.004Z,98725.39
2019-05-19T20:44:39.208Z,98725.39
2019-05-19T20:49:42.421Z,98723.49
2019-05-19T20:54:45.629Z,98728.41
2019-05-19T20:59:48.837Z,98726.22
2019-05-19T21:04:52.040Z,98722.41
2019-05-19T21:09:55.264Z,98719.94
2019-05-19T21:14:58.472Z,98717.75
2019-05-19T21:20:02.258Z,98715.86
2019-05-19T21:25:06.880Z,98715.86
2019-05-19T21:30:10.089Z,98718.58
2019-05-19T21:35:13.302Z,98714.49
2019-05-19T21:40:16.520Z,98714.23
2019-05-19T21:45:19.899Z,98717.22
2019-05-19T21:50:23.108Z,98719.11
2019-05-19T21:55:26.332Z,98720.48
2019-05-19T22:00:30.566Z,98719.69
2019-05-19T22:05:33.774Z,98718.33
2019-05-19T22:10:36.998Z,98725.39
2019-05-19T22:15:40.208Z,98725.13
2019-05-19T22:20:43.461Z,98728.93
2019-05-19T22:25:46.681Z,98725.13
2019-05-19T22:30:49.911Z,98733.31
2019-05-19T22:35:53.105Z,98736.57
2019-05-19T22:40:56.326Z,98744.45
2019-05-19T22:45:59.540Z,98741.73
2019-05-19T22:51:02.754Z,98736.28
2019-05-19T22:56:06.006Z,98736.03
2019-05-19T23:01:09.308Z,98734.92
2019-05-19T23:06:12.490Z,98729.47
2019-05-19T23:11:15.712Z,98733.55
2019-05-19T23:16:18.923Z,98736.28
2019-05-19T23:21:22.119Z,98735.45
2019-05-19T23:26:25.338Z,98741.44
2019-05-19T23:31:28.551Z,98752.91
2019-05-19T23:36:31.762Z,98764.06
2019-05-19T23:41:34.980Z,98776.32
2019-05-19T23:46:38.189Z,98772.77
2019-05-19T23:51:41.396Z,98764.06
2019-05-19T23:56:44.629Z,98751.55
